ADDS METAR Data INFO
IDs: Format: Raw Decoded Include TAF

Data at: 2159 UTC 24 Feb 2018

PASK 242156Z AUTO 25010KT 6SM HZ CLR M19/M22 A2981 RMK AO2 SLP092 T11941222 FZRANO $
PASK 242056Z AUTO 25008KT 10SM CLR M19/M22 A2981 RMK AO2 SNB21E41 SLP091 P0000 60000 T11941222 53001 FZRANO $
PASK 241956Z AUTO 26009KT 9SM CLR M21/M23 A2980 RMK AO2 SLP088 T12061228 FZRANO $
PASK 241856Z AUTO 26008KT 5SM BR CLR M22/M24 A2980 RMK AO2 SLP088 T12221244 FZRANO $
PASK 241756Z AUTO 25005KT 7SM CLR M22/M23 A2981 RMK AO2 SLP090 60000 T12171233 11167 21217 53003 FZRANO $
PASK 241656Z AUTO 30004KT 10SM CLR M21/M22 A2980 RMK AO2 SLP089 T12061222 FZRANO $
PASK 241623Z AUTO 30005KT 10SM SCT028 M20/M22 A2980 RMK AO2 FZRANO $
PASK 241556Z AUTO 31004KT 10SM OVC028 M19/M22 A2980 RMK AO2 SLP087 T11941217 FZRANO $
PASK 241519Z AUTO 01004KT 10SM BKN028 M18/M21 A2980 RMK AO2 FZRANO $
PASK 241509Z AUTO 36005KT 10SM FEW019 SCT026 M18/M20 A2980 RMK AO2 FZRANO $
PASK 241456Z AUTO 35005KT 10SM SCT021 BKN026 M18/M20 A2980 RMK AO2 SLP087 60000 T11781200 56009 FZRANO $
PASK 241356Z AUTO 01005KT 10SM OVC021 M17/M18 A2980 RMK AO2 SLP088 T11671183 FZRANO $
PASK 241256Z AUTO 02004KT 10SM OVC021 M17/M18 A2981 RMK AO2 SNB25E35 SLP093 P0000 T11671183 FZRANO $
PASK 241156Z AUTO 36004KT 10SM OVC021 M18/M19 A2983 RMK AO2 SLP097 T11781194 11178 21244 56022 FZRANO $
PASK 241056Z AUTO 01004KT 10SM OVC019 M19/M21 A2984 RMK AO2 SLP102 T11891211 FZRANO $
PASK 240956Z AUTO 04005KT 10SM OVC019 M21/M23 A2987 RMK AO2 SLP110 T12111228 FZRANO $
PASK 240921Z AUTO 04003KT 10SM BKN019 M23/M25 A2988 RMK AO2 FZRANO $
PASK 240856Z AUTO 05005KT 10SM CLR M24/M26 A2989 RMK AO2 SLP119 T12391261 411221244 56024 FZRANO $
PASK 240756Z AUTO 05006KT 10SM CLR M24/M26 A2991 RMK AO2 SLP125 T12391261 FZRANO $
PASK 240710Z AUTO 06005KT 10SM OVC031 M22/M24 A2993 RMK AO2 FZRANO $
PASK 240656Z AUTO 08004KT 10SM OVC029 M22/M24 A2994 RMK AO2 SLP135 T12171239 FZRANO $
PASK 240556Z AUTO 06008KT 10SM BKN027 M21/M22 A2996 RMK AO2 SLP143 60000 T12061222 11122 21211 56024 FZRANO $
PASK 240533Z AUTO 05009KT 10SM SCT027 M21/M23 A2996 RMK AO2 FZRANO $
PASK 240456Z AUTO 05008KT 10SM BKN020 OVC025 M19/M21 A2998 RMK AO2 SLP148 T11891211 FZRANO $
PASK 240356Z AUTO 04008KT 10SM BKN020 OVC030 M16/M18 A3001 RMK AO2 SNE02 SLP159 P0000 T11611178 FZRANO $
PASK 240256Z AUTO 03005KT 9SM -SN FEW020 BKN032 M16/M18 A3003 RMK AO2 SNB02 SLP167 P0000 60000 T11611183 58035 FZRANO $
PASK 240156Z AUTO 00000KT 10SM OVC034 M13/M16 A3008 RMK AO2 SNE11 SLP182 P0000 T11331161 FZRANO $
PASK 240135Z AUTO 31003KT 10SM SCT018 OVC032 M13/M16 A3008 RMK AO2 SNE11 P0000 FZRANO $
PASK 240056Z AUTO 29005KT 9SM -SN OVC018 M12/M16 A3010 RMK AO2 SNB08 SLP190 P0000 T11221156 FZRANO $
PASK 240046Z AUTO 26004KT 9SM -SN BKN018 OVC031 M12/M16 A3011 RMK AO2 SNB08 P0000 FZRANO $
PASK 232356Z AUTO 27005KT 10SM OVC018 M13/M16 A3014 RMK AO2 SNE03B21E37 SLP202 P0000 60000 T11281156 11128 21161 58022 FZRANO $
PASK 232256Z AUTO 26008KT 9SM -SN BKN020 OVC025 M13/M16 A3017 RMK AO2 SNB45 SLP214 P0000 T11281161 FZRANO $
PASK 232156Z AUTO 26007KT 10SM OVC020 M13/M16 A3019 RMK AO2 SLP220 T11331161 FZRANO $
PASK 232056Z AUTO 26011KT 10SM OVC020 M14/M16 A3020 RMK AO2 SLP224 T11391161 50001 FZRANO $
PASK 232044Z AUTO 26011KT 10SM BKN020 BKN031 M14/M17 A3021 RMK AO2 FZRANO $
PASK 232024Z AUTO 26012KT 10SM SCT015 SCT031 M15/M17 A3021 RMK AO2 FZRANO $
PASK 231956Z AUTO 25015KT 10SM BKN015 M16/M18 A3021 RMK AO2 SLP226 T11561178 FZRANO $
PASK 231953Z AUTO 25014KT 10SM BKN015 M16/M18 A3021 RMK AO2 FZRANO $
PASK 231930Z AUTO 23009KT 10SM FEW015 M16/M18 A3022 RMK AO2 FZRANO $
PASK 231856Z AUTO 26007KT 10SM BKN028 M15/M17 A3020 RMK AO2 SLP223 T11501172 FZRANO $
PASK 231756Z AUTO 27014G17KT 10SM CLR M16/M18 A3020 RMK AO2 SLP223 60000 T11611183 11144 21161 58012 FZRANO $
PASK 231723Z AUTO 28015KT 10SM SCT014 M16/M18 A3021 RMK AO2 FZRANO $
PASK 231656Z AUTO 27018G24KT 10SM OVC014 M15/M17 A3022 RMK AO2 SLP230 T11501172 FZRANO $
PASK 231626Z AUTO 27015G23KT 10SM BKN016 M15/M17 A3022 RMK AO2 FZRANO $
PASK 231556Z AUTO 28015G21KT 10SM SCT015 M16/M18 A3024 RMK AO2 SLP236 T11561178 FZRANO $
PASK 231456Z AUTO 28014KT 10SM OVC015 M16/M18 A3023 RMK AO2 PK WND 27027/1400 SLP235 60000 T11561178 51014 FZRANO $
PASK 231427Z AUTO 28011G18KT 10SM BKN015 M16/M18 A3023 RMK AO2 PK WND 27027/1400 FZRANO $
PASK 231356Z AUTO 28018G25KT 5SM BR CLR M16/M18 A3022 RMK AO2 PK WND 27030/1257 SNE38 SLP232 P0000 T11561178 FZRANO $
PASK 231256Z AUTO 27022G29KT 4SM -SN BR CLR M16/M18 A3021 RMK AO2 PK WND 26029/1254 SLP228 P0000 T11561178 FZRANO $
PASK 231156Z AUTO 25018G24KT 4SM -SN BR CLR M16/M18 A3019 RMK AO2 PK WND 25029/1140 SNB18 SLP220 P0000 60000 T11561178 11117 21156 51029 FZRANO $
PASK 231056Z AUTO 26022G29KT 9SM CLR M15/M17 A3018 RMK AO2 PK WND 26030/1021 SNB09E52 SLP215 P0000 T11501172 FZRANO $